sensor_id;sensor_type;location;lat;lon;timestamp;P1;durP1;ratioP1;P2;durP2;ratioP2
74894;SDS011;63447;49.446;8.666;2024-03-06T00:02:04;9.00;;;3.33;;
74894;SDS011;63447;49.446;8.666;2024-03-06T00:04:30;6.57;;;3.10;;
74894;SDS011;63447;49.446;8.666;2024-03-06T00:06:58;7.10;;;3.28;;
74894;SDS011;63447;49.446;8.666;2024-03-06T00:09:24;8.18;;;3.13;;
74894;SDS011;63447;49.446;8.666;2024-03-06T00:11:52;7.10;;;3.50;;
74894;SDS011;63447;49.446;8.666;2024-03-06T00:14:21;6.53;;;2.90;;
74894;SDS011;63447;49.446;8.666;2024-03-06T00:16:49;6.30;;;2.80;;
74894;SDS011;63447;49.446;8.666;2024-03-06T00:19:16;7.75;;;3.00;;
74894;SDS011;63447;49.446;8.666;2024-03-06T00:21:47;5.75;;;3.08;;
74894;SDS011;63447;49.446;8.666;2024-03-06T00:24:13;6.70;;;3.00;;
74894;SDS011;63447;49.446;8.666;2024-03-06T00:26:44;7.45;;;3.28;;
74894;SDS011;63447;49.446;8.666;2024-03-06T00:29:10;7.32;;;3.10;;
74894;SDS011;63447;49.446;8.666;2024-03-06T00:31:36;10.10;;;3.47;;
74894;SDS011;63447;49.446;8.666;2024-03-06T00:34:01;8.35;;;3.38;;
74894;SDS011;63447;49.446;8.666;2024-03-06T00:36:27;8.57;;;3.80;;
74894;SDS011;63447;49.446;8.666;2024-03-06T00:38:59;7.85;;;3.38;;
74894;SDS011;63447;49.446;8.666;2024-03-06T00:41:24;8.30;;;3.60;;
74894;SDS011;63447;49.446;8.666;2024-03-06T00:43:50;9.23;;;3.33;;
74894;SDS011;63447;49.446;8.666;2024-03-06T00:46:15;7.07;;;3.27;;
74894;SDS011;63447;49.446;8.666;2024-03-06T00:48:40;7.17;;;3.00;;
74894;SDS011;63447;49.446;8.666;2024-03-06T00:51:08;7.27;;;3.30;;
74894;SDS011;63447;49.446;8.666;2024-03-06T00:53:38;9.15;;;3.83;;
74894;SDS011;63447;49.446;8.666;2024-03-06T00:56:07;7.53;;;3.25;;
74894;SDS011;63447;49.446;8.666;2024-03-06T00:58:34;8.75;;;4.03;;
74894;SDS011;63447;49.446;8.666;2024-03-06T01:01:00;8.97;;;3.83;;
74894;SDS011;63447;49.446;8.666;2024-03-06T01:03:25;9.90;;;3.90;;
74894;SDS011;63447;49.446;8.666;2024-03-06T01:05:51;9.48;;;3.95;;
74894;SDS011;63447;49.446;8.666;2024-03-06T01:08:19;8.55;;;3.78;;
74894;SDS011;63447;49.446;8.666;2024-03-06T01:10:49;7.55;;;3.75;;
74894;SDS011;63447;49.446;8.666;2024-03-06T01:13:15;9.43;;;3.78;;
74894;SDS011;63447;49.446;8.666;2024-03-06T01:15:44;7.95;;;4.10;;
74894;SDS011;63447;49.446;8.666;2024-03-06T01:18:12;8.32;;;3.78;;
74894;SDS011;63447;49.446;8.666;2024-03-06T01:20:37;8.50;;;4.32;;
74894;SDS011;63447;49.446;8.666;2024-03-06T01:23:05;8.55;;;3.85;;
74894;SDS011;63447;49.446;8.666;2024-03-06T01:25:31;10.30;;;4.28;;
74894;SDS011;63447;49.446;8.666;2024-03-06T01:27:57;8.30;;;3.78;;
74894;SDS011;63447;49.446;8.666;2024-03-06T01:30:22;8.45;;;4.13;;
74894;SDS011;63447;49.446;8.666;2024-03-06T01:32:50;10.10;;;4.07;;
74894;SDS011;63447;49.446;8.666;2024-03-06T01:35:15;9.67;;;4.47;;
74894;SDS011;63447;49.446;8.666;2024-03-06T01:37:43;7.68;;;4.47;;
74894;SDS011;63447;49.446;8.666;2024-03-06T01:40:09;7.57;;;3.95;;
74894;SDS011;63447;49.446;8.666;2024-03-06T01:42:39;9.05;;;4.40;;
74894;SDS011;63447;49.446;8.666;2024-03-06T01:45:05;8.27;;;4.25;;
74894;SDS011;63447;49.446;8.666;2024-03-06T01:47:30;8.30;;;3.83;;
74894;SDS011;63447;49.446;8.666;2024-03-06T01:49:58;8.15;;;4.22;;
74894;SDS011;63447;49.446;8.666;2024-03-06T01:52:24;6.90;;;3.55;;
74894;SDS011;63447;49.446;8.666;2024-03-06T01:54:49;8.38;;;3.60;;
74894;SDS011;63447;49.446;8.666;2024-03-06T01:57:16;7.90;;;3.88;;
74894;SDS011;63447;49.446;8.666;2024-03-06T01:59:44;8.00;;;3.75;;
74894;SDS011;63447;49.446;8.666;2024-03-06T02:02:12;9.88;;;3.78;;
74894;SDS011;63447;49.446;8.666;2024-03-06T02:04:38;7.57;;;3.55;;
74894;SDS011;63447;49.446;8.666;2024-03-06T02:07:09;8.75;;;4.35;;
74894;SDS011;63447;49.446;8.666;2024-03-06T02:09:40;8.60;;;3.90;;
74894;SDS011;63447;49.446;8.666;2024-03-06T02:12:06;9.13;;;3.70;;
74894;SDS011;63447;49.446;8.666;2024-03-06T02:14:35;7.10;;;4.03;;
74894;SDS011;63447;49.446;8.666;2024-03-06T02:17:19;6.72;;;3.58;;
74894;SDS011;63447;49.446;8.666;2024-03-06T02:19:44;7.83;;;3.60;;
74894;SDS011;63447;49.446;8.666;2024-03-06T02:22:10;8.10;;;3.72;;
74894;SDS011;63447;49.446;8.666;2024-03-06T02:24:40;7.82;;;3.70;;
74894;SDS011;63447;49.446;8.666;2024-03-06T02:27:11;8.07;;;3.80;;
74894;SDS011;63447;49.446;8.666;2024-03-06T02:29:38;7.95;;;4.03;;
74894;SDS011;63447;49.446;8.666;2024-03-06T02:32:06;11.10;;;3.83;;
74894;SDS011;63447;49.446;8.666;2024-03-06T02:34:36;7.75;;;4.05;;
74894;SDS011;63447;49.446;8.666;2024-03-06T02:37:01;7.90;;;3.57;;
74894;SDS011;63447;49.446;8.666;2024-03-06T02:39:26;7.50;;;3.50;;
74894;SDS011;63447;49.446;8.666;2024-03-06T02:41:52;8.30;;;3.83;;
74894;SDS011;63447;49.446;8.666;2024-03-06T02:44:19;10.85;;;4.60;;
74894;SDS011;63447;49.446;8.666;2024-03-06T02:46:50;9.35;;;4.30;;
74894;SDS011;63447;49.446;8.666;2024-03-06T02:49:16;11.07;;;4.60;;
74894;SDS011;63447;49.446;8.666;2024-03-06T02:51:42;9.38;;;4.65;;
74894;SDS011;63447;49.446;8.666;2024-03-06T02:54:10;8.27;;;4.30;;
74894;SDS011;63447;49.446;8.666;2024-03-06T02:56:41;10.23;;;4.63;;
74894;SDS011;63447;49.446;8.666;2024-03-06T02:59:06;10.77;;;5.33;;
74894;SDS011;63447;49.446;8.666;2024-03-06T03:01:34;9.70;;;5.45;;
74894;SDS011;63447;49.446;8.666;2024-03-06T03:03:59;10.38;;;4.88;;
74894;SDS011;63447;49.446;8.666;2024-03-06T03:06:27;11.25;;;4.97;;
74894;SDS011;63447;49.446;8.666;2024-03-06T03:08:56;12.65;;;5.68;;
74894;SDS011;63447;49.446;8.666;2024-03-06T03:11:24;10.95;;;5.45;;
74894;SDS011;63447;49.446;8.666;2024-03-06T03:13:49;9.23;;;4.67;;
74894;SDS011;63447;49.446;8.666;2024-03-06T03:16:15;10.20;;;4.77;;
74894;SDS011;63447;49.446;8.666;2024-03-06T03:18:42;11.38;;;5.07;;
74894;SDS011;63447;49.446;8.666;2024-03-06T03:21:08;11.93;;;5.35;;
74894;SDS011;63447;49.446;8.666;2024-03-06T03:23:35;9.98;;;4.70;;
74894;SDS011;63447;49.446;8.666;2024-03-06T03:26:04;9.43;;;4.57;;
74894;SDS011;63447;49.446;8.666;2024-03-06T03:28:33;9.52;;;4.70;;
74894;SDS011;63447;49.446;8.666;2024-03-06T03:30:58;8.40;;;4.72;;
74894;SDS011;63447;49.446;8.666;2024-03-06T03:33:27;10.07;;;4.75;;
74894;SDS011;63447;49.446;8.666;2024-03-06T03:35:52;7.03;;;3.63;;
74894;SDS011;63447;49.446;8.666;2024-03-06T03:38:17;8.17;;;4.03;;
74894;SDS011;63447;49.446;8.666;2024-03-06T03:40:43;10.07;;;4.40;;
74894;SDS011;63447;49.446;8.666;2024-03-06T03:43:08;9.38;;;4.30;;
74894;SDS011;63447;49.446;8.666;2024-03-06T03:45:36;9.02;;;4.35;;
74894;SDS011;63447;49.446;8.666;2024-03-06T03:48:02;9.32;;;4.22;;
74894;SDS011;63447;49.446;8.666;2024-03-06T03:50:29;9.60;;;4.68;;
74894;SDS011;63447;49.446;8.666;2024-03-06T03:52:57;8.70;;;4.22;;
74894;SDS011;63447;49.446;8.666;2024-03-06T03:55:25;9.65;;;4.60;;
74894;SDS011;63447;49.446;8.666;2024-03-06T03:57:51;8.15;;;3.95;;
74894;SDS011;63447;49.446;8.666;2024-03-06T04:00:17;8.45;;;3.90;;
74894;SDS011;63447;49.446;8.666;2024-03-06T04:02:43;8.90;;;3.80;;
74894;SDS011;63447;49.446;8.666;2024-03-06T04:05:08;8.30;;;4.57;;
74894;SDS011;63447;49.446;8.666;2024-03-06T04:07:35;10.38;;;4.47;;
74894;SDS011;63447;49.446;8.666;2024-03-06T04:10:01;9.35;;;4.03;;
74894;SDS011;63447;49.446;8.666;2024-03-06T04:12:26;9.20;;;4.05;;
74894;SDS011;63447;49.446;8.666;2024-03-06T04:14:54;8.40;;;3.63;;
74894;SDS011;63447;49.446;8.666;2024-03-06T04:17:19;9.55;;;3.90;;
74894;SDS011;63447;49.446;8.666;2024-03-06T04:19:45;7.38;;;3.67;;
74894;SDS011;63447;49.446;8.666;2024-03-06T04:22:13;9.45;;;4.55;;
74894;SDS011;63447;49.446;8.666;2024-03-06T04:24:42;11.02;;;4.32;;
74894;SDS011;63447;49.446;8.666;2024-03-06T04:27:08;8.35;;;3.97;;
74894;SDS011;63447;49.446;8.666;2024-03-06T04:29:33;12.50;;;4.60;;
74894;SDS011;63447;49.446;8.666;2024-03-06T04:31:58;10.43;;;4.90;;
74894;SDS011;63447;49.446;8.666;2024-03-06T04:34:24;10.13;;;5.00;;
74894;SDS011;63447;49.446;8.666;2024-03-06T04:36:51;9.60;;;4.53;;
74894;SDS011;63447;49.446;8.666;2024-03-06T04:39:17;10.55;;;4.80;;
74894;SDS011;63447;49.446;8.666;2024-03-06T04:41:45;10.45;;;4.63;;
74894;SDS011;63447;49.446;8.666;2024-03-06T04:44:10;8.15;;;4.88;;
74894;SDS011;63447;49.446;8.666;2024-03-06T04:46:35;9.48;;;4.60;;
74894;SDS011;63447;49.446;8.666;2024-03-06T04:49:01;8.25;;;4.75;;
74894;SDS011;63447;49.446;8.666;2024-03-06T04:51:27;9.57;;;5.05;;
74894;SDS011;63447;49.446;8.666;2024-03-06T04:53:54;11.23;;;5.50;;
74894;SDS011;63447;49.446;8.666;2024-03-06T04:56:22;11.32;;;5.43;;
74894;SDS011;63447;49.446;8.666;2024-03-06T04:58:47;11.23;;;5.40;;
74894;SDS011;63447;49.446;8.666;2024-03-06T05:03:38;10.27;;;4.67;;
74894;SDS011;63447;49.446;8.666;2024-03-06T05:06:06;11.57;;;5.32;;
74894;SDS011;63447;49.446;8.666;2024-03-06T05:08:31;9.35;;;5.00;;
74894;SDS011;63447;49.446;8.666;2024-03-06T05:10:59;9.25;;;4.63;;
74894;SDS011;63447;49.446;8.666;2024-03-06T05:13:25;10.50;;;5.00;;
74894;SDS011;63447;49.446;8.666;2024-03-06T05:15:52;8.75;;;4.28;;
74894;SDS011;63447;49.446;8.666;2024-03-06T05:18:22;9.25;;;5.00;;
74894;SDS011;63447;49.446;8.666;2024-03-06T05:20:47;8.60;;;4.28;;
74894;SDS011;63447;49.446;8.666;2024-03-06T05:23:15;9.82;;;4.93;;
74894;SDS011;63447;49.446;8.666;2024-03-06T05:25:42;10.07;;;4.55;;
74894;SDS011;63447;49.446;8.666;2024-03-06T05:28:08;9.85;;;4.70;;
74894;SDS011;63447;49.446;8.666;2024-03-06T05:30:33;10.25;;;5.28;;
74894;SDS011;63447;49.446;8.666;2024-03-06T05:33:01;10.10;;;5.15;;
74894;SDS011;63447;49.446;8.666;2024-03-06T05:35:32;9.35;;;4.38;;
74894;SDS011;63447;49.446;8.666;2024-03-06T05:37:59;8.70;;;4.70;;
74894;SDS011;63447;49.446;8.666;2024-03-06T05:40:30;10.50;;;4.93;;
74894;SDS011;63447;49.446;8.666;2024-03-06T05:43:00;9.27;;;4.90;;
74894;SDS011;63447;49.446;8.666;2024-03-06T05:45:28;12.50;;;5.28;;
74894;SDS011;63447;49.446;8.666;2024-03-06T05:47:56;9.02;;;5.28;;
74894;SDS011;63447;49.446;8.666;2024-03-06T05:50:21;9.97;;;5.00;;
74894;SDS011;63447;49.446;8.666;2024-03-06T05:52:47;10.43;;;5.40;;
74894;SDS011;63447;49.446;8.666;2024-03-06T05:55:13;10.90;;;5.38;;
74894;SDS011;63447;49.446;8.666;2024-03-06T05:57:38;10.85;;;5.03;;
74894;SDS011;63447;49.446;8.666;2024-03-06T06:00:10;11.77;;;5.25;;
74894;SDS011;63447;49.446;8.666;2024-03-06T06:02:39;10.75;;;5.53;;
74894;SDS011;63447;49.446;8.666;2024-03-06T06:05:05;9.50;;;5.25;;
74894;SDS011;63447;49.446;8.666;2024-03-06T06:07:33;10.32;;;5.57;;
74894;SDS011;63447;49.446;8.666;2024-03-06T06:09:58;8.40;;;4.70;;
74894;SDS011;63447;49.446;8.666;2024-03-06T06:12:33;9.00;;;4.93;;
74894;SDS011;63447;49.446;8.666;2024-03-06T06:14:58;9.65;;;5.30;;
74894;SDS011;63447;49.446;8.666;2024-03-06T06:17:26;10.30;;;5.40;;
74894;SDS011;63447;49.446;8.666;2024-03-06T06:19:54;10.70;;;5.70;;
74894;SDS011;63447;49.446;8.666;2024-03-06T06:22:19;10.87;;;5.37;;
74894;SDS011;63447;49.446;8.666;2024-03-06T06:24:47;10.57;;;5.20;;
74894;SDS011;63447;49.446;8.666;2024-03-06T06:27:13;9.68;;;4.75;;
74894;SDS011;63447;49.446;8.666;2024-03-06T06:29:39;11.27;;;5.10;;
74894;SDS011;63447;49.446;8.666;2024-03-06T06:32:04;9.63;;;5.80;;
74894;SDS011;63447;49.446;8.666;2024-03-06T06:34:36;10.63;;;5.63;;
74894;SDS011;63447;49.446;8.666;2024-03-06T06:37:01;12.95;;;7.72;;
74894;SDS011;63447;49.446;8.666;2024-03-06T06:39:29;16.05;;;8.63;;
74894;SDS011;63447;49.446;8.666;2024-03-06T06:41:57;15.37;;;8.40;;
74894;SDS011;63447;49.446;8.666;2024-03-06T06:44:24;15.00;;;8.75;;
74894;SDS011;63447;49.446;8.666;2024-03-06T06:46:50;19.05;;;9.57;;
74894;SDS011;63447;49.446;8.666;2024-03-06T06:49:15;14.57;;;9.23;;
74894;SDS011;63447;49.446;8.666;2024-03-06T06:51:43;15.20;;;9.02;;
74894;SDS011;63447;49.446;8.666;2024-03-06T06:54:08;15.95;;;9.02;;
74894;SDS011;63447;49.446;8.666;2024-03-06T06:56:36;14.65;;;8.73;;
74894;SDS011;63447;49.446;8.666;2024-03-06T06:59:07;15.20;;;8.68;;
74894;SDS011;63447;49.446;8.666;2024-03-06T07:01:35;15.13;;;9.38;;
74894;SDS011;63447;49.446;8.666;2024-03-06T07:04:00;14.20;;;9.40;;
74894;SDS011;63447;49.446;8.666;2024-03-06T07:06:28;17.33;;;9.75;;
74894;SDS011;63447;49.446;8.666;2024-03-06T07:08:53;14.40;;;8.63;;
74894;SDS011;63447;49.446;8.666;2024-03-06T07:11:19;17.13;;;9.60;;
74894;SDS011;63447;49.446;8.666;2024-03-06T07:13:45;17.27;;;10.77;;
74894;SDS011;63447;49.446;8.666;2024-03-06T07:16:13;14.23;;;9.18;;
74894;SDS011;63447;49.446;8.666;2024-03-06T07:18:39;15.75;;;9.30;;
74894;SDS011;63447;49.446;8.666;2024-03-06T07:21:07;15.38;;;8.57;;
74894;SDS011;63447;49.446;8.666;2024-03-06T07:23:35;14.82;;;8.48;;
74894;SDS011;63447;49.446;8.666;2024-03-06T07:26:05;15.20;;;8.43;;
74894;SDS011;63447;49.446;8.666;2024-03-06T07:28:30;14.43;;;8.18;;
74894;SDS011;63447;49.446;8.666;2024-03-06T07:30:58;13.27;;;7.38;;
74894;SDS011;63447;49.446;8.666;2024-03-06T07:33:23;12.93;;;7.50;;
74894;SDS011;63447;49.446;8.666;2024-03-06T07:35:48;13.30;;;7.63;;
74894;SDS011;63447;49.446;8.666;2024-03-06T07:38:14;14.75;;;7.47;;
74894;SDS011;63447;49.446;8.666;2024-03-06T07:40:40;14.45;;;7.45;;
74894;SDS011;63447;49.446;8.666;2024-03-06T07:43:05;13.20;;;7.57;;
74894;SDS011;63447;49.446;8.666;2024-03-06T07:45:31;13.65;;;7.22;;
74894;SDS011;63447;49.446;8.666;2024-03-06T07:47:58;12.65;;;7.28;;
74894;SDS011;63447;49.446;8.666;2024-03-06T07:50:24;17.03;;;7.83;;
74894;SDS011;63447;49.446;8.666;2024-03-06T07:52:49;15.20;;;8.57;;
74894;SDS011;63447;49.446;8.666;2024-03-06T07:55:19;17.85;;;8.60;;
74894;SDS011;63447;49.446;8.666;2024-03-06T07:57:47;13.85;;;8.20;;
74894;SDS011;63447;49.446;8.666;2024-03-06T08:00:15;14.30;;;8.60;;
74894;SDS011;63447;49.446;8.666;2024-03-06T08:02:49;15.23;;;8.80;;
74894;SDS011;63447;49.446;8.666;2024-03-06T08:05:15;15.93;;;9.05;;
74894;SDS011;63447;49.446;8.666;2024-03-06T08:07:41;16.90;;;9.13;;
74894;SDS011;63447;49.446;8.666;2024-03-06T08:10:11;16.90;;;9.43;;
74894;SDS011;63447;49.446;8.666;2024-03-06T08:12:42;17.42;;;10.23;;
74894;SDS011;63447;49.446;8.666;2024-03-06T08:15:13;15.15;;;9.43;;
74894;SDS011;63447;49.446;8.666;2024-03-06T08:17:44;18.40;;;10.35;;
74894;SDS011;63447;49.446;8.666;2024-03-06T08:20:11;17.70;;;10.35;;
74894;SDS011;63447;49.446;8.666;2024-03-06T08:22:38;16.60;;;10.10;;
74894;SDS011;63447;49.446;8.666;2024-03-06T08:25:10;16.65;;;9.82;;
74894;SDS011;63447;49.446;8.666;2024-03-06T08:27:39;15.45;;;9.73;;
74894;SDS011;63447;49.446;8.666;2024-03-06T08:30:06;17.52;;;10.30;;
74894;SDS011;63447;49.446;8.666;2024-03-06T08:32:32;14.60;;;8.77;;
74894;SDS011;63447;49.446;8.666;2024-03-06T08:35:03;14.23;;;9.07;;
74894;SDS011;63447;49.446;8.666;2024-03-06T08:37:32;15.48;;;8.93;;
74894;SDS011;63447;49.446;8.666;2024-03-06T08:40:00;14.70;;;9.18;;
74894;SDS011;63447;49.446;8.666;2024-03-06T08:42:28;15.90;;;9.75;;
74894;SDS011;63447;49.446;8.666;2024-03-06T08:44:57;16.17;;;9.43;;
74894;SDS011;63447;49.446;8.666;2024-03-06T08:47:27;15.23;;;9.30;;
74894;SDS011;63447;49.446;8.666;2024-03-06T08:49:55;17.35;;;9.57;;
74894;SDS011;63447;49.446;8.666;2024-03-06T08:52:22;15.52;;;9.27;;
74894;SDS011;63447;49.446;8.666;2024-03-06T08:54:48;14.80;;;9.70;;
74894;SDS011;63447;49.446;8.666;2024-03-06T08:57:13;16.08;;;9.52;;
74894;SDS011;63447;49.446;8.666;2024-03-06T08:59:41;14.77;;;8.77;;
74894;SDS011;63447;49.446;8.666;2024-03-06T09:02:17;16.77;;;9.55;;
74894;SDS011;63447;49.446;8.666;2024-03-06T09:04:45;16.10;;;9.00;;
74894;SDS011;63447;49.446;8.666;2024-03-06T09:07:13;14.27;;;9.18;;
74894;SDS011;63447;49.446;8.666;2024-03-06T09:09:41;13.13;;;8.30;;
74894;SDS011;63447;49.446;8.666;2024-03-06T09:12:07;15.13;;;8.70;;
74894;SDS011;63447;49.446;8.666;2024-03-06T09:14:42;13.88;;;8.13;;
74894;SDS011;63447;49.446;8.666;2024-03-06T09:17:10;14.68;;;8.65;;
74894;SDS011;63447;49.446;8.666;2024-03-06T09:19:40;15.05;;;8.30;;
74894;SDS011;63447;49.446;8.666;2024-03-06T09:22:10;13.82;;;7.88;;
74894;SDS011;63447;49.446;8.666;2024-03-06T09:24:35;14.97;;;7.83;;
74894;SDS011;63447;49.446;8.666;2024-03-06T09:27:03;14.75;;;8.38;;
74894;SDS011;63447;49.446;8.666;2024-03-06T09:29:36;14.07;;;7.82;;
74894;SDS011;63447;49.446;8.666;2024-03-06T09:32:01;12.40;;;7.10;;
74894;SDS011;63447;49.446;8.666;2024-03-06T09:34:29;13.90;;;7.30;;
74894;SDS011;63447;49.446;8.666;2024-03-06T09:36:54;11.52;;;6.97;;
74894;SDS011;63447;49.446;8.666;2024-03-06T09:39:20;13.55;;;7.35;;
74894;SDS011;63447;49.446;8.666;2024-03-06T09:41:47;13.30;;;7.43;;
74894;SDS011;63447;49.446;8.666;2024-03-06T09:44:14;11.48;;;7.40;;
74894;SDS011;63447;49.446;8.666;2024-03-06T09:46:49;12.48;;;7.40;;
74894;SDS011;63447;49.446;8.666;2024-03-06T09:49:17;13.75;;;6.95;;
74894;SDS011;63447;49.446;8.666;2024-03-06T09:51:46;12.18;;;7.20;;
74894;SDS011;63447;49.446;8.666;2024-03-06T09:54:20;12.98;;;7.30;;
74894;SDS011;63447;49.446;8.666;2024-03-06T09:56:47;12.25;;;6.78;;
74894;SDS011;63447;49.446;8.666;2024-03-06T09:59:14;13.20;;;7.38;;
74894;SDS011;63447;49.446;8.666;2024-03-06T10:01:53;11.65;;;6.75;;
74894;SDS011;63447;49.446;8.666;2024-03-06T10:04:23;13.85;;;7.05;;
74894;SDS011;63447;49.446;8.666;2024-03-06T10:06:56;12.18;;;5.95;;
74894;SDS011;63447;49.446;8.666;2024-03-06T10:09:24;13.45;;;6.90;;
74894;SDS011;63447;49.446;8.666;2024-03-06T10:11:51;10.52;;;6.55;;
74894;SDS011;63447;49.446;8.666;2024-03-06T10:14:21;10.93;;;6.25;;
74894;SDS011;63447;49.446;8.666;2024-03-06T10:19:24;11.70;;;6.25;;
74894;SDS011;63447;49.446;8.666;2024-03-06T10:21:52;10.40;;;6.53;;
74894;SDS011;63447;49.446;8.666;2024-03-06T10:24:22;12.23;;;6.72;;
74894;SDS011;63447;49.446;8.666;2024-03-06T10:26:52;14.68;;;7.25;;
74894;SDS011;63447;49.446;8.666;2024-03-06T10:29:25;12.48;;;7.00;;
74894;SDS011;63447;49.446;8.666;2024-03-06T10:31:55;12.50;;;6.70;;
74894;SDS011;63447;49.446;8.666;2024-03-06T10:34:25;11.65;;;7.13;;
74894;SDS011;63447;49.446;8.666;2024-03-06T10:36:55;12.73;;;7.47;;
74894;SDS011;63447;49.446;8.666;2024-03-06T10:41:51;13.75;;;7.35;;
74894;SDS011;63447;49.446;8.666;2024-03-06T10:44:20;12.90;;;7.32;;
74894;SDS011;63447;49.446;8.666;2024-03-06T10:46:47;12.98;;;8.02;;
74894;SDS011;63447;49.446;8.666;2024-03-06T10:49:22;13.80;;;8.13;;
74894;SDS011;63447;49.446;8.666;2024-03-06T10:51:52;15.07;;;8.48;;
74894;SDS011;63447;49.446;8.666;2024-03-06T10:54:18;13.52;;;7.10;;
74894;SDS011;63447;49.446;8.666;2024-03-06T10:56:46;14.68;;;7.90;;
74894;SDS011;63447;49.446;8.666;2024-03-06T10:59:13;12.77;;;8.23;;
74894;SDS011;63447;49.446;8.666;2024-03-06T11:01:41;12.63;;;7.40;;
74894;SDS011;63447;49.446;8.666;2024-03-06T11:04:09;14.48;;;8.55;;
74894;SDS011;63447;49.446;8.666;2024-03-06T11:06:37;14.52;;;8.70;;
74894;SDS011;63447;49.446;8.666;2024-03-06T11:09:03;14.80;;;8.52;;
74894;SDS011;63447;49.446;8.666;2024-03-06T11:11:28;13.60;;;7.45;;
74894;SDS011;63447;49.446;8.666;2024-03-06T11:14:01;18.55;;;9.50;;
74894;SDS011;63447;49.446;8.666;2024-03-06T11:16:29;15.10;;;8.27;;
74894;SDS011;63447;49.446;8.666;2024-03-06T11:19:07;14.90;;;7.97;;
74894;SDS011;63447;49.446;8.666;2024-03-06T11:21:45;14.30;;;7.57;;
74894;SDS011;63447;49.446;8.666;2024-03-06T11:24:20;12.98;;;7.57;;
74894;SDS011;63447;49.446;8.666;2024-03-06T11:26:49;15.50;;;8.88;;
74894;SDS011;63447;49.446;8.666;2024-03-06T11:29:22;14.38;;;8.45;;
74894;SDS011;63447;49.446;8.666;2024-03-06T11:32:05;15.85;;;8.68;;
74894;SDS011;63447;49.446;8.666;2024-03-06T11:34:33;14.57;;;8.75;;
74894;SDS011;63447;49.446;8.666;2024-03-06T11:36:59;14.65;;;8.70;;
74894;SDS011;63447;49.446;8.666;2024-03-06T11:39:32;13.45;;;8.18;;
74894;SDS011;63447;49.446;8.666;2024-03-06T11:42:01;15.55;;;8.25;;
74894;SDS011;63447;49.446;8.666;2024-03-06T11:44:27;14.50;;;8.18;;
74894;SDS011;63447;49.446;8.666;2024-03-06T11:51:52;15.98;;;8.77;;
74894;SDS011;63447;49.446;8.666;2024-03-06T11:54:19;13.95;;;8.68;;
74894;SDS011;63447;49.446;8.666;2024-03-06T11:56:49;16.67;;;8.95;;
74894;SDS011;63447;49.446;8.666;2024-03-06T11:59:26;16.23;;;9.70;;
74894;SDS011;63447;49.446;8.666;2024-03-06T12:01:55;15.90;;;9.40;;
74894;SDS011;63447;49.446;8.666;2024-03-06T12:04:22;14.32;;;8.82;;
74894;SDS011;63447;49.446;8.666;2024-03-06T12:06:50;14.45;;;9.07;;
74894;SDS011;63447;49.446;8.666;2024-03-06T12:09:16;18.60;;;9.63;;
74894;SDS011;63447;49.446;8.666;2024-03-06T12:11:42;15.43;;;8.88;;
74894;SDS011;63447;49.446;8.666;2024-03-06T12:14:14;15.57;;;9.43;;
74894;SDS011;63447;49.446;8.666;2024-03-06T12:16:43;17.95;;;9.40;;
74894;SDS011;63447;49.446;8.666;2024-03-06T12:19:09;15.10;;;8.93;;
74894;SDS011;63447;49.446;8.666;2024-03-06T12:21:35;16.65;;;9.50;;
74894;SDS011;63447;49.446;8.666;2024-03-06T12:26:31;15.52;;;9.43;;
74894;SDS011;63447;49.446;8.666;2024-03-06T12:31:35;17.77;;;9.57;;
74894;SDS011;63447;49.446;8.666;2024-03-06T12:34:03;15.85;;;9.20;;
74894;SDS011;63447;49.446;8.666;2024-03-06T12:36:29;15.60;;;9.55;;
74894;SDS011;63447;49.446;8.666;2024-03-06T12:38:56;14.38;;;8.68;;
74894;SDS011;63447;49.446;8.666;2024-03-06T12:41:23;15.48;;;9.02;;
74894;SDS011;63447;49.446;8.666;2024-03-06T12:43:51;15.98;;;9.52;;
74894;SDS011;63447;49.446;8.666;2024-03-06T12:46:16;16.48;;;9.10;;
74894;SDS011;63447;49.446;8.666;2024-03-06T12:48:42;18.57;;;10.13;;
74894;SDS011;63447;49.446;8.666;2024-03-06T12:51:07;17.10;;;9.47;;
74894;SDS011;63447;49.446;8.666;2024-03-06T12:53:32;18.13;;;9.73;;
74894;SDS011;63447;49.446;8.666;2024-03-06T12:56:01;18.75;;;10.45;;
74894;SDS011;63447;49.446;8.666;2024-03-06T12:58:26;18.73;;;9.95;;
74894;SDS011;63447;49.446;8.666;2024-03-06T13:00:51;18.07;;;10.13;;
74894;SDS011;63447;49.446;8.666;2024-03-06T13:03:20;21.33;;;9.95;;
74894;SDS011;63447;49.446;8.666;2024-03-06T13:05:45;18.15;;;10.90;;
74894;SDS011;63447;49.446;8.666;2024-03-06T13:08:11;18.92;;;10.00;;
74894;SDS011;63447;49.446;8.666;2024-03-06T13:10:39;18.88;;;10.27;;
74894;SDS011;63447;49.446;8.666;2024-03-06T13:13:09;19.40;;;10.25;;
74894;SDS011;63447;49.446;8.666;2024-03-06T13:15:34;17.40;;;10.02;;
74894;SDS011;63447;49.446;8.666;2024-03-06T13:18:03;17.77;;;9.88;;
74894;SDS011;63447;49.446;8.666;2024-03-06T13:20:31;16.98;;;9.60;;
74894;SDS011;63447;49.446;8.666;2024-03-06T13:22:58;17.70;;;9.13;;
74894;SDS011;63447;49.446;8.666;2024-03-06T13:25:23;17.30;;;9.23;;
74894;SDS011;63447;49.446;8.666;2024-03-06T13:27:49;16.02;;;9.40;;
74894;SDS011;63447;49.446;8.666;2024-03-06T13:30:19;15.20;;;8.82;;
74894;SDS011;63447;49.446;8.666;2024-03-06T13:32:46;14.95;;;8.00;;
74894;SDS011;63447;49.446;8.666;2024-03-06T13:35:12;16.30;;;8.30;;
74894;SDS011;63447;49.446;8.666;2024-03-06T13:37:39;14.52;;;8.68;;
74894;SDS011;63447;49.446;8.666;2024-03-06T13:40:11;18.67;;;8.55;;
74894;SDS011;63447;49.446;8.666;2024-03-06T13:42:38;14.88;;;7.68;;
74894;SDS011;63447;49.446;8.666;2024-03-06T13:45:06;16.52;;;8.63;;
74894;SDS011;63447;49.446;8.666;2024-03-06T13:47:36;13.82;;;8.50;;
74894;SDS011;63447;49.446;8.666;2024-03-06T13:50:06;14.70;;;8.15;;
74894;SDS011;63447;49.446;8.666;2024-03-06T13:52:35;16.50;;;8.75;;
74894;SDS011;63447;49.446;8.666;2024-03-06T13:55:01;15.90;;;8.20;;
74894;SDS011;63447;49.446;8.666;2024-03-06T13:57:30;15.65;;;8.27;;
74894;SDS011;63447;49.446;8.666;2024-03-06T14:00:00;17.88;;;9.20;;
74894;SDS011;63447;49.446;8.666;2024-03-06T14:02:28;16.00;;;9.13;;
74894;SDS011;63447;49.446;8.666;2024-03-06T14:04:54;15.20;;;8.45;;
74894;SDS011;63447;49.446;8.666;2024-03-06T14:07:19;16.03;;;8.63;;
74894;SDS011;63447;49.446;8.666;2024-03-06T14:09:47;17.85;;;9.10;;
74894;SDS011;63447;49.446;8.666;2024-03-06T14:12:12;16.77;;;9.50;;
74894;SDS011;63447;49.446;8.666;2024-03-06T14:14:38;14.77;;;8.82;;
74894;SDS011;63447;49.446;8.666;2024-03-06T14:17:03;16.38;;;9.02;;
74894;SDS011;63447;49.446;8.666;2024-03-06T14:19:29;20.05;;;9.23;;
74894;SDS011;63447;49.446;8.666;2024-03-06T14:21:54;20.08;;;10.18;;
74894;SDS011;63447;49.446;8.666;2024-03-06T14:24:22;18.70;;;10.10;;
74894;SDS011;63447;49.446;8.666;2024-03-06T14:26:47;18.25;;;9.75;;
74894;SDS011;63447;49.446;8.666;2024-03-06T14:29:14;16.90;;;9.63;;
74894;SDS011;63447;49.446;8.666;2024-03-06T14:31:41;17.52;;;10.63;;
74894;SDS011;63447;49.446;8.666;2024-03-06T14:34:07;17.87;;;10.37;;
74894;SDS011;63447;49.446;8.666;2024-03-06T14:36:32;18.98;;;10.00;;
74894;SDS011;63447;49.446;8.666;2024-03-06T14:38:59;18.38;;;10.00;;
74894;SDS011;63447;49.446;8.666;2024-03-06T14:41:25;18.67;;;10.27;;
74894;SDS011;63447;49.446;8.666;2024-03-06T14:43:50;20.93;;;11.07;;
74894;SDS011;63447;49.446;8.666;2024-03-06T14:46:15;15.80;;;9.32;;
74894;SDS011;63447;49.446;8.666;2024-03-06T14:48:41;18.90;;;10.38;;
74894;SDS011;63447;49.446;8.666;2024-03-06T14:51:06;18.60;;;10.18;;
74894;SDS011;63447;49.446;8.666;2024-03-06T14:53:34;18.50;;;10.23;;
74894;SDS011;63447;49.446;8.666;2024-03-06T14:56:00;19.23;;;10.17;;
74894;SDS011;63447;49.446;8.666;2024-03-06T14:58:26;20.20;;;10.55;;